Time;durP1;ratioP1;P1;durP2;ratioP2;P2;SDS_P1;SDS_P2;PMS_P1;PMS_P2;Temp;Humidity;BMP_temperature;BMP_pressure;BME280_temperature;BME280_humidity;BME280_pressure;Samples;Min_cycle;Max_cycle;Signal;HPM_P1;HPM_P2
2023/01/06 00:00:19;;;;;;;22.20;8.43;;;;;;;16.70;69.25;101719.88;5005379;28;20513;-71
2023/01/06 00:02:46;;;;;;;19.13;8.40;;;;;;;15.94;70.70;101722.94;5002693;28;20031;-71
2023/01/06 00:05:12;;;;;;;14.75;8.63;;;;;;;16.43;69.47;101716.09;5004490;28;20097;-72
2023/01/06 00:07:38;;;;;;;14.25;7.75;;;;;;;16.44;69.41;101717.72;5004911;28;20034;-70
2023/01/06 00:10:04;;;;;;;25.10;7.07;;;;;;;16.61;68.28;101710.47;5005383;28;20030;-71
2023/01/06 00:12:29;;;;;;;18.90;7.35;;;;;;;16.75;67.59;101708.28;5004638;28;20026;-73
2023/01/06 00:14:54;;;;;;;13.32;7.43;;;;;;;16.64;68.91;101716.25;5004229;28;20489;-70
2023/01/06 00:17:20;;;;;;;15.00;6.80;;;;;;;16.26;69.22;101705.16;5005996;28;20042;-71
2023/01/06 00:19:46;;;;;;;16.38;6.55;;;;;;;15.69;71.83;101712.38;5005721;28;20037;-71
2023/01/06 00:22:11;;;;;;;12.93;6.50;;;;;;;16.22;69.44;101703.19;5004799;28;20092;-71
2023/01/06 00:24:37;;;;;;;18.08;7.05;;;;;;;16.54;68.84;101707.94;5004220;28;20089;-70
2023/01/06 00:27:02;;;;;;;13.52;6.93;;;;;;;16.85;68.01;101711.16;5000582;28;20078;-72
2023/01/06 00:29:27;;;;;;;14.40;5.80;;;;;;;16.10;70.41;101703.22;5003052;28;20391;-71
2023/01/06 00:31:53;;;;;;;13.10;5.65;;;;;;;16.34;69.70;101701.25;5003247;28;20049;-71
2023/01/06 00:34:18;;;;;;;15.43;5.97;;;;;;;16.42;69.64;101706.28;5003810;28;20034;-71
2023/01/06 00:36:44;;;;;;;14.52;5.78;;;;;;;16.03;70.17;101707.97;5002450;28;20490;-70
2023/01/06 00:39:12;;;;;;;15.55;6.20;;;;;;;16.04;70.23;101714.22;5000749;28;20471;-71
2023/01/06 00:44:23;;;;;;;12.90;4.82;;;;;;;16.69;68.25;101696.50;5002270;28;20041;-70
2023/01/06 00:46:49;;;;;;;19.73;5.50;;;;;;;15.95;70.02;101719.19;5003265;28;20058;-72
2023/01/06 00:49:14;;;;;;;15.20;5.43;;;;;;;16.30;70.19;101719.91;5010309;28;20109;-72
2023/01/06 00:51:40;;;;;;;15.35;5.00;;;;;;;16.12;69.58;101720.06;5003829;28;20506;-70
2023/01/06 00:54:09;;;;;;;17.55;5.72;;;;;;;16.30;69.20;101719.91;5005983;28;20129;-70
2023/01/06 00:56:39;;;;;;;17.70;5.57;;;;;;;16.13;69.55;101716.31;5004710;28;20045;-71
2023/01/06 00:59:06;;;;;;;8.70;4.55;;;;;;;16.63;67.58;101713.75;5006774;28;20018;-71
2023/01/06 01:01:33;;;;;;;14.07;4.47;;;;;;;16.33;69.15;101715.91;5005263;28;20034;-71
2023/01/06 01:03:58;;;;;;;12.02;4.60;;;;;;;16.99;67.15;101715.22;5009464;28;20045;-72
2023/01/06 01:06:24;;;;;;;19.73;4.75;;;;;;;16.60;67.54;101712.38;5014705;28;20041;-70
2023/01/06 01:08:57;;;;;;;15.98;5.40;;;;;;;16.14;68.62;101711.69;5007454;28;20041;-73
2023/01/06 01:14:08;;;;;;;8.82;4.45;;;;;;;15.95;69.31;101708.34;5009947;28;20052;-71
2023/01/06 01:16:33;;;;;;;9.93;3.47;;;;;;;16.35;68.32;101705.63;5007322;28;20113;-72
2023/01/06 01:18:59;;;;;;;14.80;4.43;;;;;;;16.18;67.77;101707.44;5007190;28;20038;-73
2023/01/06 01:21:24;;;;;;;8.55;3.50;;;;;;;16.46;67.18;101697.44;5006131;28;20049;-71
2023/01/06 01:23:50;;;;;;;8.15;4.15;;;;;;;15.91;69.54;101706.34;5007067;28;20046;-70
2023/01/06 01:26:15;;;;;;;11.57;3.95;;;;;;;16.00;68.71;101696.78;5007459;28;20042;-71
2023/01/06 01:28:41;;;;;;;4.53;2.90;;;;;;;16.59;66.87;101691.72;5006004;28;20065;-71
2023/01/06 01:31:06;;;;;;;13.68;3.33;;;;;;;16.66;66.66;101691.59;5005117;28;20385;-73
2023/01/06 01:33:32;;;;;;;8.27;2.97;;;;;;;15.98;68.17;101686.16;5006184;28;20057;-72
2023/01/06 01:36:04;;;;;;;13.55;3.78;;;;;;;15.63;70.52;101691.66;5006943;28;20042;-70
2023/01/06 01:38:30;;;;;;;6.20;2.65;;;;;;;16.15;68.54;101678.09;5005848;28;20106;-71
2023/01/06 01:40:55;;;;;;;14.40;3.03;;;;;;;15.53;69.92;101691.44;5007626;28;20037;-71
2023/01/06 01:43:20;;;;;;;10.77;3.15;;;;;;;15.86;68.94;101679.97;5005269;28;20225;-71
2023/01/06 01:45:50;;;;;;;5.82;2.78;;;;;;;15.86;68.83;101663.72;5005299;28;20046;-71
2023/01/06 01:48:29;;;;;;;5.85;3.17;;;;;;;16.12;67.92;101668.56;5005150;28;20494;-70
2023/01/06 01:50:57;;;;;;;6.75;2.90;;;;;;;16.77;66.05;101666.25;5006891;28;20124;-70
2023/01/06 01:53:41;;;;;;;10.32;3.00;;;;;;;15.84;68.75;101673.97;5006261;28;20022;-71
2023/01/06 01:56:11;;;;;;;5.57;2.70;;;;;;;15.91;68.98;101668.38;5007277;28;20521;-70
2023/01/06 01:58:42;;;;;;;7.03;3.33;;;;;;;15.97;68.68;101665.53;5010812;28;20074;-71
2023/01/06 02:01:09;;;;;;;14.38;3.25;;;;;;;16.50;66.24;101674.22;5012868;28;20045;-71
2023/01/06 02:03:36;;;;;;;8.63;3.28;;;;;;;15.62;69.08;101675.66;5013524;28;20637;-70
2023/01/06 02:06:06;;;;;;;9.30;3.20;;;;;;;15.99;68.57;101674.25;5013783;28;20494;-72
2023/01/06 02:08:41;;;;;;;13.18;3.67;;;;;;;16.09;68.22;101673.63;5013995;28;20042;-71
2023/01/06 02:11:08;;;;;;;5.82;3.30;;;;;;;16.18;67.69;101681.16;5015694;28;20096;-72
2023/01/06 02:13:36;;;;;;;8.63;3.80;;;;;;;16.10;68.27;101670.69;5013611;28;20102;-69
2023/01/06 02:16:29;;;;;;;12.52;3.67;;;;;;;16.61;66.47;101656.19;5013450;28;20046;-71
2023/01/06 02:19:18;;;;;;;4.45;3.38;;;;;;;16.31;66.99;101653.72;5013073;28;20065;-71
2023/01/06 02:22:14;;;;;;;9.32;3.78;;;;;;;16.07;67.75;101664.91;4997087;28;20054;-71
2023/01/06 02:25:10;;;;;;;5.40;4.00;;;;;;;15.32;70.17;101654.09;5013467;28;20076;-73
2023/01/06 02:27:38;;;;;;;16.33;4.07;;;;;;;16.43;66.55;101656.41;5012996;28;20148;-71
2023/01/06 02:30:41;;;;;;;7.07;3.45;;;;;;;16.45;66.91;101643.41;5013311;28;20069;-71
2023/01/06 02:33:26;;;;;;;9.60;4.30;;;;;;;15.69;68.86;101644.63;5013664;28;20030;-73
2023/01/06 02:36:18;;;;;;;13.02;4.15;;;;;;;15.98;68.41;101639.25;5013470;28;20493;-71
2023/01/06 02:39:11;;;;;;;7.32;3.88;;;;;;;15.99;68.00;101635.47;5013653;28;20046;-71
2023/01/06 02:41:47;;;;;;;12.90;6.18;;;;;;;16.06;68.31;101636.97;5013607;28;20149;-70
2023/01/06 02:44:29;;;;;;;6.28;3.95;;;;;;;15.64;69.18;101622.03;5013414;28;20054;-71
2023/01/06 02:47:09;;;;;;;15.15;7.05;;;;;;;16.12;67.33;101624.34;5013684;28;20414;-72
2023/01/06 02:49:50;;;;;;;9.20;5.65;;;;;;;16.33;66.23;101624.47;5013475;28;20049;-70
2023/01/06 02:52:45;;;;;;;9.90;4.57;;;;;;;16.27;66.69;101614.63;5013134;28;20137;-70
2023/01/06 02:55:25;;;;;;;7.30;4.70;;;;;;;15.59;69.15;101630.03;4993440;28;20049;-69
2023/01/06 02:57:57;;;;;;;12.40;5.10;;;;;;;15.66;69.42;101628.84;4992486;28;20128;-71
2023/01/06 03:00:41;;;;;;;7.85;4.90;;;;;;;15.61;69.30;101623.34;5002013;28;20042;-71
2023/01/06 03:03:12;;;;;;;8.50;4.53;;;;;;;16.68;66.39;101591.75;5011758;28;20868;-72
2023/01/06 03:05:40;;;;;;;14.27;5.03;;;;;;;16.11;67.77;101607.25;5011759;28;20068;-71
2023/01/06 03:08:16;;;;;;;13.52;5.45;;;;;;;16.25;67.21;101594.22;5014276;28;20064;-71
2023/01/06 03:10:45;;;;;;;9.38;5.22;;;;;;;16.34;66.68;101593.56;5012032;28;20485;-71
2023/01/06 03:13:31;;;;;;;6.45;4.45;;;;;;;16.14;67.40;101589.66;5012161;28;20142;-71
2023/01/06 03:15:56;;;;;;;7.63;4.38;;;;;;;15.78;67.53;101589.00;5011866;28;20070;-70
2023/01/06 03:18:22;;;;;;;12.77;6.35;;;;;;;15.84;67.59;101579.91;5011836;28;20069;-72
2023/01/06 03:20:51;;;;;;;6.28;4.63;;;;;;;16.23;66.90;101575.50;5012182;28;20042;-70
2023/01/06 03:23:18;;;;;;;7.63;5.05;;;;;;;16.61;65.04;101564.75;5012372;28;20030;-72
2023/01/06 03:25:43;;;;;;;9.70;5.50;;;;;;;16.38;65.40;101577.63;5012946;28;20044;-71
2023/01/06 03:28:08;;;;;;;8.02;4.32;;;;;;;15.77;67.74;101571.09;5012247;28;20038;-71
2023/01/06 03:30:59;;;;;;;4.38;3.70;;;;;;;16.21;66.14;101574.91;5011949;28;20513;-71
2023/01/06 03:33:57;;;;;;;6.70;5.13;;;;;;;16.55;65.79;101570.34;5011891;28;20033;-72
2023/01/06 03:36:58;;;;;;;11.20;4.97;;;;;;;16.96;62.96;101545.47;4950883;28;20384;-73
2023/01/06 03:39:52;;;;;;;11.15;6.10;;;;;;;16.42;65.47;101536.22;4912916;29;20048;-71
2023/01/06 03:45:25;;;;;;;14.55;8.55;;;;;;;16.51;64.68;101534.75;4912983;29;20616;-72
2023/01/06 03:48:12;;;;;;;12.00;6.63;;;;;;;16.29;66.10;101541.97;4912749;29;20055;-70
2023/01/06 03:50:40;;;;;;;9.32;6.25;;;;;;;15.66;67.45;101541.34;4913307;29;20048;-69
2023/01/06 03:53:24;;;;;;;10.07;6.43;;;;;;;16.18;65.79;101534.72;4915805;29;20080;-79
2023/01/06 03:55:57;;;;;;;7.15;5.75;;;;;;;16.13;66.70;101531.91;4915706;29;20521;-78
2023/01/06 03:58:24;;;;;;;12.10;8.18;;;;;;;15.91;66.84;101532.84;4915514;29;20050;-77
2023/01/06 04:00:50;;;;;;;12.40;6.72;;;;;;;16.00;66.63;101536.84;4912572;29;20067;-78
2023/01/06 04:03:15;;;;;;;9.48;6.68;;;;;;;15.77;67.39;101530.44;4900614;29;20040;-75
2023/01/06 04:05:41;;;;;;;8.40;7.07;;;;;;;16.69;64.64;101518.22;4915163;29;20484;-76
2023/01/06 04:08:06;;;;;;;12.43;6.75;;;;;;;16.63;64.31;101515.66;4909797;29;20052;-77
2023/01/06 04:10:32;;;;;;;8.68;5.47;;;;;;;16.52;64.91;101503.00;4895708;29;20051;-79
2023/01/06 04:12:57;;;;;;;6.22;4.88;;;;;;;16.73;63.84;101501.44;4905724;29;20459;-75
2023/01/06 04:15:28;;;;;;;8.27;4.90;;;;;;;16.61;64.42;101488.78;4958482;28;20093;-77
2023/01/06 04:17:53;;;;;;;9.85;4.38;;;;;;;16.97;63.33;101479.22;5013356;28;20042;-77
2023/01/06 04:20:22;;;;;;;6.30;3.65;;;;;;;16.48;64.42;101474.69;5013456;28;20037;-77
2023/01/06 04:22:48;;;;;;;7.22;4.57;;;;;;;16.37;64.40;101471.00;5014751;28;20022;-76
2023/01/06 04:25:13;;;;;;;12.05;4.47;;;;;;;16.22;65.25;101472.66;5018028;28;20038;-77
2023/01/06 04:27:39;;;;;;;4.72;3.72;;;;;;;16.50;64.49;101465.28;5018137;28;20402;-76
2023/01/06 04:30:05;;;;;;;4.15;3.08;;;;;;;16.84;63.13;101454.34;5018170;28;20084;-77
2023/01/06 04:32:31;;;;;;;5.78;3.97;;;;;;;16.49;63.42;101469.06;5018327;28;20117;-76
2023/01/06 04:34:56;;;;;;;10.00;3.53;;;;;;;16.76;63.04;101460.22;5018484;28;20030;-76
2023/01/06 04:37:22;;;;;;;5.82;2.67;;;;;;;17.25;61.42;101460.03;5017984;28;20045;-76
2023/01/06 04:39:48;;;;;;;7.63;3.08;;;;;;;17.02;62.13;101452.13;5017802;28;20045;-78
2023/01/06 04:42:14;;;;;;;7.45;2.75;;;;;;;16.45;63.98;101454.31;5017628;28;20049;-75
2023/01/06 04:44:41;;;;;;;6.68;2.80;;;;;;;16.46;64.09;101445.13;5018059;28;20497;-78
2023/01/06 04:47:07;;;;;;;5.65;2.17;;;;;;;17.47;60.59;101452.66;5020118;28;20033;-78
2023/01/06 04:49:33;;;;;;;8.32;2.30;;;;;;;16.39;62.70;101449.88;5029501;28;20040;-77
2023/01/06 04:51:58;;;;;;;11.63;2.72;;;;;;;16.83;61.82;101445.38;5017437;28;20038;-77
2023/01/06 04:54:24;;;;;;;4.22;2.10;;;;;;;16.46;62.33;101441.56;5017334;28;20402;-77
2023/01/06 04:56:49;;;;;;;9.40;2.33;;;;;;;17.02;61.16;101418.75;5017178;28;20042;-77
2023/01/06 04:59:14;;;;;;;2.33;1.52;;;;;;;16.14;63.43;101419.66;5031553;28;20025;-76
2023/01/06 05:01:40;;;;;;;6.63;1.95;;;;;;;16.11;63.98;101435.59;5029982;28;20036;-77
2023/01/06 05:04:06;;;;;;;4.95;1.98;;;;;;;16.36;62.93;101425.97;5016766;28;20127;-77
2023/01/06 05:06:32;;;;;;;9.63;2.00;;;;;;;15.95;64.40;101423.69;5017279;28;20038;-76
2023/01/06 05:08:57;;;;;;;6.43;2.33;;;;;;;16.18;63.40;101428.94;5002971;28;20057;-76
2023/01/06 05:11:25;;;;;;;3.40;2.55;;;;;;;16.08;63.67;101417.13;5016944;28;20402;-78
2023/01/06 05:13:52;;;;;;;7.32;2.33;;;;;;;16.43;62.80;101425.81;5017523;28;20026;-77
2023/01/06 05:16:19;;;;;;;7.57;3.05;;;;;;;16.22;63.64;101437.41;5017086;28;20501;-78
2023/01/06 05:18:45;;;;;;;6.10;2.65;;;;;;;15.98;65.14;101428.63;5017004;28;20045;-78
2023/01/06 05:21:11;;;;;;;5.90;2.65;;;;;;;16.21;64.22;101424.91;4999528;28;20042;-78
2023/01/06 05:23:37;;;;;;;4.32;2.25;;;;;;;15.69;65.75;101408.06;5017132;28;20045;-75
2023/01/06 05:26:03;;;;;;;6.97;2.42;;;;;;;16.27;64.12;101427.47;5017596;28;20179;-76
2023/01/06 05:28:29;;;;;;;4.60;2.05;;;;;;;16.00;64.77;101418.34;5016808;28;20093;-76
2023/01/06 05:31:03;;;;;;;3.03;2.78;;;;;;;15.70;65.94;101401.59;5016478;28;20045;-79
2023/01/06 05:33:29;;;;;;;5.25;2.80;;;;;;;16.09;65.13;101413.34;5015764;28;20517;-76
2023/01/06 05:36:02;;;;;;;4.47;2.85;;;;;;;16.45;63.67;101405.47;5015352;28;20063;-77
2023/01/06 05:38:28;;;;;;;6.07;2.92;;;;;;;16.12;64.51;101408.25;5016080;28;20470;-77
2023/01/06 05:40:55;;;;;;;9.18;2.55;;;;;;;15.80;65.55;101399.06;5017349;28;20038;-78
2023/01/06 05:43:22;;;;;;;5.43;2.50;;;;;;;16.42;64.02;101403.28;5017079;28;20030;-78
2023/01/06 05:45:47;;;;;;;9.18;2.55;;;;;;;16.41;64.22;101398.09;5016044;28;20053;-78
2023/01/06 05:48:13;;;;;;;4.85;2.92;;;;;;;16.29;64.38;101400.94;5028260;28;20092;-77
2023/01/06 05:50:38;;;;;;;5.43;2.90;;;;;;;16.64;64.34;101395.19;5019346;28;20041;-77
2023/01/06 05:53:04;;;;;;;3.17;2.85;;;;;;;16.30;63.91;101405.25;5017036;28;20500;-78
2023/01/06 05:55:29;;;;;;;6.88;3.35;;;;;;;16.15;65.35;101391.50;5018275;28;20038;-77
2023/01/06 05:57:54;;;;;;;6.22;2.92;;;;;;;16.51;64.36;101404.50;5016723;28;20038;-77
2023/01/06 06:00:20;;;;;;;7.32;2.70;;;;;;;15.90;66.11;101401.13;5015919;28;20041;-77
2023/01/06 06:02:45;;;;;;;3.58;2.85;;;;;;;15.30;68.89;101393.53;5015931;28;20042;-76
2023/01/06 06:05:11;;;;;;;9.35;3.33;;;;;;;15.63;68.28;101401.75;4997890;28;20097;-76
2023/01/06 06:07:36;;;;;;;4.65;3.65;;;;;;;15.76;68.62;101400.63;5016455;28;20034;-77
2023/01/06 06:10:03;;;;;;;5.05;3.20;;;;;;;15.84;67.61;101405.63;5016001;28;20045;-76
2023/01/06 06:12:28;;;;;;;6.88;4.30;;;;;;;15.80;68.72;101405.28;5014596;28;20093;-77
2023/01/06 06:15:06;;;;;;;6.32;3.50;;;;;;;15.35;70.23;101404.44;5015486;28;20050;-78
2023/01/06 06:17:31;;;;;;;4.90;4.50;;;;;;;15.67;70.61;101393.94;4996398;28;20031;-77
2023/01/06 06:19:57;;;;;;;4.60;4.20;;;;;;;15.92;68.84;101388.94;4996612;28;20037;-77
2023/01/06 06:22:22;;;;;;;7.32;4.90;;;;;;;15.78;70.48;101399.28;4977128;28;20045;-80
2023/01/06 06:24:47;;;;;;;8.77;4.68;;;;;;;15.70;70.64;101378.00;5012362;28;20057;-77
2023/01/06 06:27:13;;;;;;;7.45;4.93;;;;;;;15.68;70.59;101393.69;5015455;28;20037;-78
2023/01/06 06:29:38;;;;;;;6.75;5.32;;;;;;;15.54;71.44;101392.38;5014578;28;20129;-78
2023/01/06 06:32:04;;;;;;;5.68;4.78;;;;;;;15.33;71.73;101398.44;5015177;28;20522;-77
2023/01/06 06:34:29;;;;;;;22.05;6.40;;;;;;;15.78;70.80;101383.03;5012264;28;20637;-77
2023/01/06 06:36:54;;;;;;;10.40;5.57;;;;;;;15.07;74.12;101390.09;5016015;28;20038;-79
2023/01/06 06:39:20;;;;;;;8.88;6.15;;;;;;;15.41;72.51;101383.72;5013326;28;20506;-80
2023/01/06 06:41:46;;;;;;;9.77;5.63;;;;;;;14.66;75.40;101388.47;5013166;28;20037;-81
2023/01/06 06:44:11;;;;;;;7.55;6.55;;;;;;;14.78;75.65;101390.06;5014364;28;20030;-78
2023/01/06 06:46:36;;;;;;;7.22;6.32;;;;;;;15.05;75.12;101386.81;5015304;28;20752;-78
2023/01/06 06:49:02;;;;;;;8.35;6.75;;;;;;;14.82;76.17;101395.81;5015303;28;20065;-79
2023/01/06 06:51:29;;;;;;;12.77;7.05;;;;;;;15.22;74.21;101387.66;5016303;28;20715;-79
2023/01/06 06:53:54;;;;;;;7.35;6.38;;;;;;;14.73;75.65;101399.97;5013264;28;20064;-74
2023/01/06 06:56:20;;;;;;;7.72;6.60;;;;;;;14.66;76.66;101391.97;5014317;28;20038;-79
2023/01/06 06:58:46;;;;;;;7.68;6.68;;;;;;;15.01;75.78;101393.78;5014741;28;20038;-80
2023/01/06 07:01:15;;;;;;;7.13;6.35;;;;;;;14.91;76.43;101397.94;5014062;28;20565;-79
2023/01/06 07:03:40;;;;;;;9.02;6.75;;;;;;;14.83;76.45;101405.59;5013638;28;20401;-79
2023/01/06 07:06:09;;;;;;;14.57;6.50;;;;;;;14.71;77.03;101407.50;4996189;28;20029;-79
2023/01/06 07:08:34;;;;;;;8.77;6.15;;;;;;;14.68;77.34;101416.09;5012741;28;20030;-78
2023/01/06 07:11:00;;;;;;;5.72;5.13;;;;;;;15.01;75.31;101401.88;5013997;28;20041;-77
2023/01/06 07:13:26;;;;;;;6.78;6.07;;;;;;;15.58;73.50;101401.66;5012348;28;20057;-77
2023/01/06 07:15:52;;;;;;;6.63;6.03;;;;;;;15.27;74.86;101407.53;5009550;28;20625;-79
2023/01/06 07:18:17;;;;;;;7.00;6.30;;;;;;;15.32;74.97;101409.53;5010894;28;20525;-78
2023/01/06 07:20:47;;;;;;;8.50;6.53;;;;;;;14.96;76.83;101405.31;5011695;28;20066;-79
2023/01/06 07:23:13;;;;;;;11.20;6.25;;;;;;;15.27;75.13;101391.28;5013857;28;20022;-77
2023/01/06 07:25:39;;;;;;;9.75;4.88;;;;;;;14.58;78.01;101410.47;5010162;28;20127;-77
2023/01/06 07:28:05;;;;;;;7.68;5.15;;;;;;;14.80;76.11;101430.44;5013050;28;20132;-77
2023/01/06 07:30:46;;;;;;;6.95;5.90;;;;;;;14.88;76.58;101419.22;5012578;28;20490;-78
2023/01/06 07:33:11;;;;;;;6.32;5.72;;;;;;;15.58;73.48;101420.63;5011596;28;20052;-77
2023/01/06 07:35:37;;;;;;;5.85;5.35;;;;;;;15.05;76.61;101428.25;5013228;28;20505;-79
2023/01/06 07:38:04;;;;;;;6.05;5.45;;;;;;;15.17;75.53;101433.63;5011679;28;20097;-77
2023/01/06 07:40:29;;;;;;;5.90;4.60;;;;;;;15.00;75.64;101430.03;5010011;28;20495;-77
2023/01/06 07:42:55;;;;;;;5.60;4.03;;;;;;;15.06;75.11;101445.28;5011629;28;20032;-76
2023/01/06 07:45:20;;;;;;;4.90;4.43;;;;;;;15.40;74.99;101439.75;5007003;28;20528;-78
2023/01/06 07:47:45;;;;;;;5.40;4.22;;;;;;;15.05;75.99;101449.06;5018525;28;20556;-79
2023/01/06 07:50:11;;;;;;;4.88;3.20;;;;;;;14.74;77.33;101450.31;5016267;28;20112;-74
2023/01/06 07:52:36;;;;;;;3.72;3.42;;;;;;;14.50;78.33;101462.22;5011703;28;20133;-76
2023/01/06 07:55:02;;;;;;;4.57;3.30;;;;;;;15.01;76.36;101477.69;5021213;28;20360;-76
2023/01/06 07:57:28;;;;;;;6.00;3.42;;;;;;;15.07;76.10;101480.25;5013206;28;20048;-78
2023/01/06 07:59:54;;;;;;;5.00;3.53;;;;;;;15.27;74.85;101475.22;5012260;28;20040;-77
2023/01/06 08:02:20;;;;;;;3.92;2.60;;;;;;;14.69;76.67;101499.72;5006822;28;20034;-79
2023/01/06 08:04:46;;;;;;;4.88;3.15;;;;;;;14.49;77.22;101496.53;4990705;28;20537;-77
2023/01/06 08:07:12;;;;;;;7.28;3.38;;;;;;;14.84;75.90;101515.47;5011234;28;20042;-76
2023/01/06 08:09:38;;;;;;;6.38;3.28;;;;;;;15.12;73.96;101518.25;5005022;28;20093;-76
2023/01/06 08:12:03;;;;;;;5.63;3.40;;;;;;;15.17;74.68;101525.66;4993741;28;20041;-77
2023/01/06 08:14:29;;;;;;;4.10;3.05;;;;;;;14.68;74.95;101522.41;5006986;28;20502;-77
2023/01/06 08:16:54;;;;;;;8.55;2.92;;;;;;;15.00;74.67;101539.09;5010324;28;20489;-76
2023/01/06 08:19:19;;;;;;;6.15;2.58;;;;;;;14.68;74.56;101543.25;4989413;28;20171;-75
2023/01/06 08:21:45;;;;;;;8.18;2.45;;;;;;;15.77;70.50;101551.31;5026236;28;20049;-78
2023/01/06 08:24:10;;;;;;;11.35;2.30;;;;;;;15.24;71.33;101573.22;5007918;28;20467;-77
2023/01/06 08:26:35;;;;;;;5.03;2.20;;;;;;;15.26;71.67;101564.84;5006034;28;20056;-76
2023/01/06 08:29:03;;;;;;;8.95;3.03;;;;;;;15.89;68.36;101573.75;5008886;28;20030;-76
2023/01/06 08:31:28;;;;;;;6.20;1.80;;;;;;;15.27;70.45;101582.75;5007252;28;20050;-77
2023/01/06 08:33:53;;;;;;;6.95;2.25;;;;;;;14.95;71.56;101576.88;5007487;28;20481;-75
2023/01/06 08:36:22;;;;;;;5.70;2.20;;;;;;;15.35;70.33;101577.78;5008549;28;20030;-79
2023/01/06 08:38:48;;;;;;;6.50;1.90;;;;;;;14.65;71.59;101597.81;5008331;28;20033;-77
2023/01/06 08:41:14;;;;;;;12.93;2.50;;;;;;;15.31;69.91;101581.22;4989325;28;20026;-79
2023/01/06 08:43:41;;;;;;;5.82;2.10;;;;;;;15.72;68.16;101581.03;5007072;28;20029;-76
2023/01/06 08:46:10;;;;;;;5.35;1.30;;;;;;;15.18;69.49;101576.03;5004651;28;20041;-76
2023/01/06 08:48:35;;;;;;;9.35;2.28;;;;;;;15.26;69.48;101581.09;5006782;28;20041;-78
2023/01/06 08:51:06;;;;;;;7.53;2.80;;;;;;;15.28;68.46;101582.50;5007691;28;20409;-76
2023/01/06 08:53:33;;;;;;;14.13;1.92;;;;;;;14.49;71.90;101579.53;5006724;28;20214;-77
2023/01/06 08:55:58;;;;;;;9.82;2.35;;;;;;;15.01;70.76;101586.78;5005551;28;20478;-76
2023/01/06 08:58:24;;;;;;;12.52;2.65;;;;;;;14.76;70.65;101580.78;5006955;28;20089;-76
2023/01/06 09:00:51;;;;;;;12.15;2.05;;;;;;;15.37;68.48;101586.47;5006073;28;20045;-78
2023/01/06 09:03:16;;;;;;;10.57;1.73;;;;;;;14.26;71.54;101593.81;5006556;28;20034;-78
2023/01/06 09:05:41;;;;;;;11.75;1.50;;;;;;;15.26;68.46;101597.34;5013077;28;20046;-77
2023/01/06 09:08:07;;;;;;;12.82;2.08;;;;;;;15.00;68.12;101608.66;5012165;28;20132;-78
2023/01/06 09:10:36;;;;;;;10.05;1.88;;;;;;;15.13;66.54;101608.41;5015562;28;20058;-78
2023/01/06 09:13:03;;;;;;;11.68;2.03;;;;;;;15.12;66.69;101620.28;5015646;28;20121;-77
2023/01/06 09:15:29;;;;;;;11.70;2.50;;;;;;;16.08;64.03;101625.91;5016985;28;20127;-77
2023/01/06 09:17:55;;;;;;;8.10;1.58;;;;;;;16.24;63.24;101630.53;5016051;28;20134;-78
2023/01/06 09:20:20;;;;;;;16.73;2.20;;;;;;;16.00;62.72;101643.38;5010892;28;20087;-77
2023/01/06 09:22:45;;;;;;;10.80;2.13;;;;;;;15.58;64.36;101636.53;5014206;28;20073;-76
2023/01/06 09:25:11;;;;;;;12.23;2.17;;;;;;;15.35;64.93;101641.97;5010077;28;20038;-77
2023/01/06 09:27:36;;;;;;;20.08;2.50;;;;;;;15.15;65.51;101652.31;5008426;28;20592;-78
2023/01/06 09:30:03;;;;;;;17.48;2.28;;;;;;;15.63;63.79;101653.72;5009601;28;20045;-77
2023/01/06 09:32:29;;;;;;;9.95;2.65;;;;;;;15.65;63.78;101656.19;5010645;28;20026;-79
2023/01/06 09:34:54;;;;;;;14.13;2.38;;;;;;;15.99;62.06;101657.16;5012224;28;20036;-80
2023/01/06 09:37:20;;;;;;;10.85;2.38;;;;;;;16.01;61.69;101663.16;5011523;28;20026;-79
2023/01/06 09:39:45;;;;;;;10.90;1.70;;;;;;;15.82;62.80;101659.81;5011799;28;20124;-78
2023/01/06 09:42:29;;;;;;;19.55;2.08;;;;;;;16.54;60.32;101663.69;5012437;28;20097;-79
2023/01/06 09:44:59;;;;;;;13.07;2.72;;;;;;;16.15;62.14;101668.09;5010583;28;20049;-80
2023/01/06 09:47:30;;;;;;;11.05;1.83;;;;;;;15.86;63.68;101666.41;5013591;28;20028;-80
2023/01/06 09:50:04;;;;;;;12.85;3.42;;;;;;;15.32;65.74;101674.91;5011555;28;20061;-77
2023/01/06 09:52:51;;;;;;;15.38;2.80;;;;;;;15.43;65.04;101685.78;5009198;28;20022;-78
2023/01/06 09:55:16;;;;;;;15.02;1.90;;;;;;;15.29;66.62;101692.47;5010278;28;20058;-78
2023/01/06 09:57:47;;;;;;;14.02;2.20;;;;;;;15.46;66.05;101692.63;5011244;28;20124;-78
2023/01/06 10:00:33;;;;;;;13.40;1.90;;;;;;;15.15;66.18;101701.91;5010808;28;20053;-80
2023/01/06 10:02:59;;;;;;;13.13;2.17;;;;;;;15.08;66.29;101705.75;5010195;28;20034;-76
2023/01/06 10:05:47;;;;;;;12.40;2.25;;;;;;;14.76;67.72;101710.66;5011531;28;20040;-79
2023/01/06 10:08:22;;;;;;;17.20;2.55;;;;;;;15.61;64.61;101701.91;4930757;29;20428;-77
2023/01/06 10:10:47;;;;;;;19.65;1.83;;;;;;;15.61;64.19;101710.03;4931051;29;20074;-79
2023/01/06 10:13:19;;;;;;;8.77;2.55;;;;;;;14.85;65.06;101710.09;4931112;29;20134;-78
2023/01/06 10:16:14;;;;;;;6.60;0.90;;;;;;;14.85;65.36;101717.38;4931021;29;20042;-79
2023/01/06 10:19:02;;;;;;;8.90;2.00;;;;;;;14.83;64.57;101719.47;4927454;29;20524;-77
2023/01/06 10:21:48;;;;;;;9.93;2.15;;;;;;;15.07;63.69;101720.34;4920505;29;20357;-79
2023/01/06 10:24:37;;;;;;;15.38;3.60;;;;;;;15.47;62.50;101703.22;4915292;29;20128;-79
2023/01/06 10:27:26;;;;;;;9.45;1.10;;;;;;;15.67;61.60;101727.22;4912006;29;20052;-79
2023/01/06 10:29:54;;;;;;;9.85;1.58;;;;;;;14.95;62.69;101732.00;4912666;29;20047;-78
2023/01/06 10:32:21;;;;;;;18.90;4.78;;;;;;;14.85;63.59;101728.19;4927595;29;20067;-79
2023/01/06 10:34:49;;;;;;;11.52;3.83;;;;;;;14.58;64.39;101737.75;4926800;29;20040;-79
2023/01/06 10:37:38;;;;;;;11.40;2.55;;;;;;;15.29;62.14;101730.38;4912577;29;20506;-79
2023/01/06 10:40:24;;;;;;;14.93;1.50;;;;;;;15.64;60.56;101731.25;4942693;29;20499;-78
2023/01/06 10:43:09;;;;;;;9.73;2.22;;;;;;;15.45;61.47;101731.63;4916614;29;20042;-79
2023/01/06 10:45:40;;;;;;;12.40;3.70;;;;;;;14.93;62.02;101742.22;4970386;28;20101;-79
2023/01/06 10:48:11;;;;;;;15.70;4.22;;;;;;;16.33;59.47;101722.13;5002252;28;20046;-81
2023/01/06 10:50:37;;;;;;;8.52;1.60;;;;;;;15.63;60.84;101728.75;4991888;28;20049;-79
2023/01/06 10:53:03;;;;;;;6.80;1.75;;;;;;;15.75;59.58;101732.28;4991802;28;20018;-80
2023/01/06 10:55:45;;;;;;;23.73;6.00;;;;;;;15.92;60.11;101729.69;4991263;28;20195;-80
2023/01/06 10:58:13;;;;;;;22.55;7.28;;;;;;;15.66;60.55;101731.00;4991951;28;20108;-83
2023/01/06 11:00:56;;;;;;;16.17;5.95;;;;;;;15.20;61.41;101739.91;4991124;28;20035;-80
2023/01/06 11:03:22;;;;;;;11.15;3.08;;;;;;;14.89;62.51;101724.81;4991715;28;20414;-79
2023/01/06 11:05:58;;;;;;;18.17;7.43;;;;;;;15.62;60.59;101714.41;4991472;28;20061;-79
2023/01/06 11:08:23;;;;;;;7.28;1.38;;;;;;;15.33;61.56;101728.03;4989813;28;20062;-81
2023/01/06 11:10:49;;;;;;;11.02;2.58;;;;;;;14.87;63.27;101710.69;4991787;28;20026;-80
2023/01/06 11:13:35;;;;;;;10.88;2.95;;;;;;;14.71;63.61;101721.31;4990899;28;20123;-80
2023/01/06 11:16:05;;;;;;;6.20;1.85;;;;;;;15.50;61.85;101710.88;4974558;28;20047;-81
2023/01/06 11:18:33;;;;;;;13.30;2.30;;;;;;;15.62;61.47;101710.88;5002559;28;20029;-80
2023/01/06 11:21:11;;;;;;;10.15;2.67;;;;;;;15.17;62.88;101715.19;5010762;28;20042;-78
2023/01/06 11:23:38;;;;;;;5.18;1.23;;;;;;;15.72;62.16;101717.31;5009989;28;20037;-79
2023/01/06 11:26:22;;;;;;;9.63;2.22;;;;;;;15.81;61.43;101713.19;5009758;28;20029;-80
2023/01/06 11:28:53;;;;;;;11.52;2.40;;;;;;;15.08;63.14;101716.56;4994296;28;20053;-82
2023/01/06 11:31:21;;;;;;;11.32;3.42;;;;;;;15.50;61.91;101712.75;5010497;28;20042;-81
2023/01/06 11:33:57;;;;;;;12.13;3.78;;;;;;;15.60;60.86;101707.56;4994928;28;20626;-80
2023/01/06 11:36:26;;;;;;;15.02;3.92;;;;;;;15.39;61.87;101706.25;5009860;28;20037;-81
2023/01/06 11:39:03;;;;;;;7.30;3.03;;;;;;;15.39;62.01;101711.66;5010975;28;20493;-81
2023/01/06 11:41:37;;;;;;;13.90;2.72;;;;;;;15.54;61.38;101701.22;5008363;28;20041;-80